createdAt,value
2023-05-15T00:00:06.474Z,6.97
2023-05-15T00:02:08.403Z,7.20
2023-05-15T00:04:10.082Z,6.63
2023-05-15T00:06:11.614Z,6.63
2023-05-15T00:08:13.164Z,6.78
2023-05-15T00:10:14.811Z,6.85
2023-05-15T00:12:16.304Z,6.07
2023-05-15T00:14:17.813Z,6.70
2023-05-15T00:16:19.406Z,6.90
2023-05-15T00:18:21.036Z,6.88
2023-05-15T00:20:22.589Z,6.45
2023-05-15T00:22:24.322Z,7.53
2023-05-15T00:24:25.853Z,6.32
2023-05-15T00:26:27.422Z,7.45
2023-05-15T00:28:29.030Z,7.40
2023-05-15T00:30:30.706Z,7.05
2023-05-15T00:32:32.299Z,7.38
2023-05-15T00:34:33.934Z,6.47
2023-05-15T00:36:35.655Z,7.75
2023-05-15T00:38:37.282Z,7.07
2023-05-15T00:40:39.772Z,7.80
2023-05-15T00:42:42.064Z,7.35
2023-05-15T00:44:45.592Z,7.82
2023-05-15T00:46:47.280Z,7.97
2023-05-15T00:48:50.911Z,7.53
2023-05-15T00:50:53.235Z,7.90
2023-05-15T00:52:55.638Z,7.82
2023-05-15T00:54:57.169Z,7.63
2023-05-15T00:56:59.936Z,8.25
2023-05-15T00:59:04.017Z,11.52
2023-05-15T01:01:08.275Z,8.32
2023-05-15T01:03:10.472Z,8.02
2023-05-15T01:05:12.090Z,8.20
2023-05-15T01:07:13.815Z,8.90
2023-05-15T01:09:16.119Z,8.32
2023-05-15T01:11:18.063Z,8.25
2023-05-15T01:13:23.432Z,8.40
2023-05-15T01:15:25.361Z,8.20
2023-05-15T01:17:27.899Z,7.65
2023-05-15T01:19:30.956Z,7.60
2023-05-15T01:21:35.820Z,7.57
2023-05-15T01:23:43.360Z,8.38
2023-05-15T01:26:19.677Z,8.38
2023-05-15T01:28:32.299Z,7.30
2023-05-15T01:30:36.679Z,7.50
2023-05-15T01:32:58.095Z,7.72
2023-05-15T01:35:11.532Z,7.07
2023-05-15T01:37:16.061Z,7.30
2023-05-15T01:39:23.141Z,7.57
2023-05-15T01:41:27.498Z,7.32
2023-05-15T01:43:30.374Z,7.10
2023-05-15T01:45:33.265Z,7.47
2023-05-15T01:47:44.563Z,7.13
2023-05-15T01:49:49.197Z,7.53
2023-05-15T01:51:55.902Z,7.28
2023-05-15T01:53:59.603Z,6.85
2023-05-15T01:56:03.932Z,7.03
2023-05-15T01:58:05.969Z,8.02
2023-05-15T02:00:08.739Z,7.45
2023-05-15T02:02:11.362Z,7.00
2023-05-15T02:04:14.419Z,6.57
2023-05-15T02:06:16.502Z,7.95
2023-05-15T02:08:18.318Z,7.28
2023-05-15T02:10:21.282Z,7.05
2023-05-15T02:12:23.359Z,7.05
2023-05-15T02:14:26.315Z,7.13
2023-05-15T02:16:28.049Z,6.65
2023-05-15T02:18:29.722Z,7.35
2023-05-15T02:20:31.417Z,6.68
2023-05-15T02:22:33.065Z,7.00
2023-05-15T02:24:34.581Z,6.90
2023-05-15T02:27:00.754Z,7.63
2023-05-15T02:29:24.340Z,6.50
2023-05-15T02:31:42.588Z,7.15
2023-05-15T02:33:57.937Z,7.57
2023-05-15T02:36:05.345Z,6.60
2023-05-15T02:38:16.270Z,6.28
2023-05-15T02:40:20.439Z,7.07
2023-05-15T02:42:22.813Z,7.72
2023-05-15T02:44:25.589Z,7.40
2023-05-15T02:46:28.285Z,7.63
2023-05-15T02:48:29.940Z,7.20
2023-05-15T02:50:31.493Z,8.10
2023-05-15T02:52:35.833Z,7.88
2023-05-15T02:54:37.387Z,7.68
2023-05-15T02:56:38.914Z,7.82
2023-05-15T02:58:41.525Z,8.52
2023-05-15T03:00:43.204Z,7.50
2023-05-15T03:02:44.735Z,7.95
2023-05-15T03:04:47.453Z,8.15
2023-05-15T03:06:49.554Z,8.63
2023-05-15T03:08:51.171Z,8.38
2023-05-15T03:10:52.687Z,7.00
2023-05-15T03:12:58.422Z,9.35
2023-05-15T03:15:00.038Z,9.25
2023-05-15T03:17:01.672Z,9.43
2023-05-15T03:19:03.948Z,7.93
2023-05-15T03:21:05.772Z,9.70
2023-05-15T03:23:07.326Z,9.98
2023-05-15T03:25:12.898Z,10.23
2023-05-15T03:27:14.455Z,10.32
2023-05-15T03:29:16.065Z,10.23
2023-05-15T03:31:17.620Z,9.95
2023-05-15T03:33:19.199Z,10.18
2023-05-15T03:35:20.742Z,11.30
2023-05-15T03:37:22.363Z,10.70
2023-05-15T03:39:23.882Z,11.25
2023-05-15T03:41:27.818Z,10.75
2023-05-15T03:43:29.354Z,10.63
2023-05-15T03:45:30.906Z,10.93
2023-05-15T03:47:32.448Z,10.65
2023-05-15T03:49:34.048Z,11.57
2023-05-15T03:51:35.634Z,11.38
2023-05-15T03:53:37.187Z,12.20
2023-05-15T03:55:38.788Z,9.10
2023-05-15T03:57:41.654Z,11.15
2023-05-15T03:59:43.273Z,10.60
2023-05-15T04:02:02.604Z,10.32
2023-05-15T04:04:04.964Z,11.75
2023-05-15T04:06:06.578Z,10.77
2023-05-15T04:08:10.127Z,12.55
2023-05-15T04:10:11.675Z,11.93
2023-05-15T04:12:13.196Z,12.10
2023-05-15T04:14:14.732Z,12.50
2023-05-15T04:16:16.285Z,12.52
2023-05-15T04:18:17.881Z,11.88
2023-05-15T04:20:24.327Z,12.43
2023-05-15T04:22:25.959Z,13.27
2023-05-15T04:24:27.465Z,12.88
2023-05-15T04:26:29.084Z,12.13
2023-05-15T04:28:31.822Z,12.23
2023-05-15T04:30:33.709Z,12.88
2023-05-15T04:32:36.512Z,12.93
2023-05-15T04:34:38.057Z,13.80
2023-05-15T04:36:40.846Z,13.30
2023-05-15T04:38:44.299Z,12.70
2023-05-15T04:40:46.217Z,12.50
2023-05-15T04:42:47.770Z,12.13
2023-05-15T04:44:49.442Z,13.55
2023-05-15T04:46:51.103Z,13.60
2023-05-15T04:48:52.696Z,12.45
2023-05-15T04:50:54.332Z,12.50
2023-05-15T04:52:55.948Z,14.20
2023-05-15T04:54:57.513Z,12.98
2023-05-15T04:56:59.139Z,12.63
2023-05-15T04:59:01.206Z,13.18
2023-05-15T05:01:03.940Z,11.82
2023-05-15T05:03:05.958Z,14.98
2023-05-15T05:05:08.205Z,14.40
2023-05-15T05:07:09.719Z,15.68
2023-05-15T05:09:11.251Z,15.18
2023-05-15T05:11:12.818Z,15.10
2023-05-15T05:13:14.398Z,15.13
2023-05-15T05:15:15.978Z,15.57
2023-05-15T05:17:17.522Z,15.05
2023-05-15T05:19:19.093Z,17.30
2023-05-15T05:21:20.823Z,17.55
2023-05-15T05:23:22.475Z,21.65
2023-05-15T05:25:24.328Z,17.48
2023-05-15T05:27:26.331Z,24.00
2023-05-15T05:29:27.860Z,18.10
2023-05-15T05:31:29.441Z,20.15
2023-05-15T05:33:31.013Z,13.05
2023-05-15T05:35:32.478Z,18.63
2023-05-15T05:37:34.050Z,19.90
2023-05-15T05:39:35.705Z,16.27
2023-05-15T05:41:37.260Z,15.57
2023-05-15T05:43:38.766Z,14.15
2023-05-15T05:45:41.053Z,15.55
2023-05-15T05:47:42.655Z,14.02
2023-05-15T05:49:47.183Z,14.80
2023-05-15T05:51:48.778Z,16.10
2023-05-15T05:53:50.383Z,14.45
2023-05-15T05:55:52.041Z,13.60
2023-05-15T05:57:54.028Z,14.43
2023-05-15T05:59:55.552Z,17.10
2023-05-15T06:01:57.421Z,33.85
2023-05-15T06:03:59.094Z,14.95
2023-05-15T06:06:00.884Z,14.48
2023-05-15T06:08:04.289Z,13.95
2023-05-15T06:10:07.593Z,13.77
2023-05-15T06:12:09.253Z,13.55
2023-05-15T06:14:10.879Z,13.48
2023-05-15T06:16:12.429Z,13.52
2023-05-15T06:18:14.192Z,12.52
2023-05-15T06:20:16.027Z,12.35
2023-05-15T06:22:17.679Z,11.25
2023-05-15T06:24:19.240Z,12.13
2023-05-15T06:26:22.088Z,12.40
2023-05-15T06:28:23.626Z,13.27
2023-05-15T06:30:25.225Z,12.70
2023-05-15T06:32:27.034Z,10.68
2023-05-15T06:34:28.630Z,9.63
2023-05-15T06:36:30.242Z,11.57
2023-05-15T06:38:31.809Z,10.43
2023-05-15T06:40:33.383Z,10.77
2023-05-15T06:42:34.936Z,9.80
2023-05-15T06:44:36.570Z,12.85
2023-05-15T06:46:38.154Z,20.00
2023-05-15T06:48:40.468Z,10.65
2023-05-15T06:50:41.952Z,14.65
2023-05-15T06:52:43.452Z,11.15
2023-05-15T06:54:44.932Z,10.85
2023-05-15T06:56:46.673Z,12.35
2023-05-15T06:58:48.193Z,9.05
2023-05-15T07:00:49.715Z,9.55
2023-05-15T07:02:51.239Z,10.55
2023-05-15T07:04:52.797Z,11.13
2023-05-15T07:06:54.431Z,10.02
2023-05-15T07:08:55.914Z,8.45
2023-05-15T07:10:57.432Z,8.68
2023-05-15T07:12:58.960Z,7.85
2023-05-15T07:15:00.661Z,7.85
2023-05-15T07:17:02.175Z,7.55
2023-05-15T07:19:03.792Z,6.72
2023-05-15T07:21:05.723Z,7.63
2023-05-15T07:23:07.303Z,6.75
2023-05-15T07:25:09.121Z,6.85
2023-05-15T07:27:10.674Z,6.53
2023-05-15T07:29:12.820Z,6.07
2023-05-15T07:31:14.419Z,6.97
2023-05-15T07:33:16.177Z,6.60
2023-05-15T07:35:18.418Z,5.78
2023-05-15T07:37:19.977Z,6.50
2023-05-15T07:39:21.547Z,7.22
2023-05-15T07:41:23.181Z,6.80
2023-05-15T07:43:24.716Z,5.63
2023-05-15T07:45:26.596Z,7.05
2023-05-15T07:47:28.383Z,7.15
2023-05-15T07:49:30.404Z,7.97
2023-05-15T07:51:31.909Z,9.20
2023-05-15T07:53:33.473Z,8.32
2023-05-15T07:55:35.048Z,7.97
2023-05-15T07:57:37.263Z,11.25
2023-05-15T07:59:38.823Z,14.20
2023-05-15T08:01:40.361Z,7.97
2023-05-15T08:03:41.960Z,7.30
2023-05-15T08:05:43.626Z,8.43
2023-05-15T08:07:45.532Z,8.20
2023-05-15T08:09:47.038Z,7.55
2023-05-15T08:11:48.581Z,7.03
2023-05-15T08:13:50.160Z,8.02
2023-05-15T08:15:51.909Z,7.68
2023-05-15T08:17:53.741Z,7.40
2023-05-15T08:19:55.866Z,7.18
2023-05-15T08:21:57.375Z,6.20
2023-05-15T08:24:00.177Z,6.75
2023-05-15T08:26:01.761Z,7.00
2023-05-15T08:28:04.693Z,7.00
2023-05-15T08:30:07.318Z,6.85
2023-05-15T08:32:09.580Z,5.97
2023-05-15T08:34:11.323Z,7.20
2023-05-15T08:36:12.908Z,7.75
2023-05-15T08:38:14.494Z,7.47
2023-05-15T08:40:16.309Z,7.30
2023-05-15T08:42:35.242Z,10.55
2023-05-15T08:44:37.669Z,11.23
2023-05-15T08:46:39.588Z,13.07
2023-05-15T08:48:42.293Z,9.15
2023-05-15T08:50:44.492Z,11.40
2023-05-15T08:52:47.981Z,10.55
2023-05-15T08:54:50.810Z,10.82
2023-05-15T08:56:53.513Z,11.00
2023-05-15T08:58:55.496Z,9.88
2023-05-15T09:00:57.583Z,6.60
2023-05-15T09:03:02.309Z,6.97
2023-05-15T09:05:08.303Z,8.38
2023-05-15T09:07:10.510Z,8.02
2023-05-15T09:09:13.708Z,6.60
2023-05-15T09:11:16.449Z,6.40
2023-05-15T09:13:18.043Z,5.70
2023-05-15T09:15:25.008Z,6.93
2023-05-15T09:17:27.109Z,6.80
2023-05-15T09:19:28.808Z,6.18
2023-05-15T09:21:34.018Z,5.72
2023-05-15T09:23:35.543Z,5.45
2023-05-15T09:25:42.617Z,5.80
2023-05-15T09:27:44.183Z,6.90
2023-05-15T09:29:46.130Z,6.43
2023-05-15T09:31:48.248Z,7.88
2023-05-15T09:34:00.781Z,6.07
2023-05-15T09:36:04.088Z,10.07
2023-05-15T09:38:10.592Z,6.78
2023-05-15T09:40:12.771Z,6.85
2023-05-15T09:42:15.147Z,6.50
2023-05-15T09:44:26.869Z,6.28
2023-05-15T09:46:28.701Z,6.32
2023-05-15T09:48:31.318Z,6.28
2023-05-15T09:50:37.997Z,5.75
2023-05-15T09:52:39.575Z,7.60
2023-05-15T09:54:46.657Z,5.32
2023-05-15T09:56:49.768Z,5.90
2023-05-15T09:59:01.026Z,7.70
2023-05-15T10:01:04.165Z,5.85
2023-05-15T10:03:07.453Z,5.38
2023-05-15T10:05:11.820Z,5.72
2023-05-15T10:07:26.920Z,5.63
2023-05-15T10:09:32.268Z,5.32
2023-05-15T10:11:41.235Z,5.95
2023-05-15T10:13:42.973Z,5.35
2023-05-15T10:15:45.048Z,5.28
2023-05-15T10:17:50.933Z,5.38
2023-05-15T10:19:58.292Z,4.70
2023-05-15T10:22:00.618Z,5.13
2023-05-15T10:24:04.503Z,5.40
2023-05-15T10:26:17.867Z,4.95
2023-05-15T10:28:20.384Z,5.20
2023-05-15T10:30:22.596Z,4.45
2023-05-15T10:32:26.012Z,5.00
2023-05-15T10:34:28.845Z,4.07
2023-05-15T10:36:32.068Z,4.53
2023-05-15T10:38:34.455Z,4.22
2023-05-15T10:40:37.566Z,4.10
2023-05-15T10:42:42.391Z,4.22
2023-05-15T10:44:43.981Z,4.57
2023-05-15T10:46:45.944Z,4.70
2023-05-15T10:48:47.766Z,4.82
2023-05-15T10:50:50.085Z,5.03
2023-05-15T10:52:52.586Z,5.68
2023-05-15T10:54:54.720Z,4.20
2023-05-15T10:56:57.403Z,4.82
2023-05-15T10:59:06.076Z,4.50
2023-05-15T11:01:24.897Z,6.22
2023-05-15T11:03:48.696Z,4.70
2023-05-15T11:06:14.074Z,4.35
2023-05-15T11:08:15.586Z,5.05
2023-05-15T11:10:38.575Z,3.70
2023-05-15T11:12:58.898Z,2.95
2023-05-15T11:15:00.432Z,4.47
2023-05-15T11:17:07.244Z,2.40
2023-05-15T11:19:50.193Z,2.33
2023-05-15T11:22:14.700Z,2.65
2023-05-15T11:24:16.299Z,2.42
2023-05-15T11:26:32.781Z,2.30
2023-05-15T11:28:42.613Z,3.13
2023-05-15T11:30:47.116Z,2.33
2023-05-15T11:32:58.275Z,4.03
2023-05-15T11:35:01.360Z,4.25
2023-05-15T11:37:03.014Z,3.53
2023-05-15T11:39:10.450Z,2.80
2023-05-15T11:41:20.060Z,2.53
2023-05-15T11:43:29.532Z,2.53
2023-05-15T11:45:41.125Z,2.38
2023-05-15T11:47:45.380Z,3.03
2023-05-15T11:49:48.588Z,2.60
2023-05-15T11:51:51.371Z,2.35
2023-05-15T11:53:54.752Z,2.17
2023-05-15T11:55:56.626Z,2.83
2023-05-15T11:57:58.131Z,2.65
2023-05-15T11:59:59.716Z,2.70
2023-05-15T12:02:01.282Z,2.75
2023-05-15T12:04:02.994Z,2.92
2023-05-15T12:06:05.006Z,2.80
2023-05-15T12:08:10.266Z,3.10
2023-05-15T12:10:13.191Z,2.47
2023-05-15T12:12:14.868Z,2.70
2023-05-15T12:14:16.671Z,2.65
2023-05-15T12:16:18.225Z,2.40
2023-05-15T12:18:19.793Z,2.70
2023-05-15T12:20:21.397Z,2.35
2023-05-15T12:22:22.952Z,2.30
2023-05-15T12:24:26.264Z,2.00
2023-05-15T12:26:29.290Z,2.72
2023-05-15T12:28:34.344Z,2.10
2023-05-15T12:30:36.518Z,1.88
2023-05-15T12:32:39.138Z,1.70
2023-05-15T12:34:41.132Z,2.33
2023-05-15T12:36:43.916Z,2.78
2023-05-15T12:38:45.468Z,3.00
2023-05-15T12:40:47.007Z,3.10
2023-05-15T12:42:56.295Z,1.77
2023-05-15T12:44:57.843Z,2.17
2023-05-15T12:46:59.360Z,1.77
2023-05-15T12:49:01.687Z,2.20
2023-05-15T12:51:07.878Z,2.50
2023-05-15T12:53:12.744Z,2.25
2023-05-15T12:55:18.788Z,1.92
2023-05-15T12:57:21.449Z,1.80
2023-05-15T12:59:23.482Z,1.85
2023-05-15T13:01:28.522Z,2.10
2023-05-15T13:03:31.928Z,2.60
2023-05-15T13:05:34.560Z,3.13
2023-05-15T13:07:36.282Z,2.50
2023-05-15T13:09:37.988Z,2.05
2023-05-15T13:11:44.051Z,2.33
2023-05-15T13:13:48.382Z,2.70
2023-05-15T13:15:50.727Z,2.63
2023-05-15T13:17:56.538Z,2.58
2023-05-15T13:19:58.096Z,2.70
2023-05-15T13:22:00.246Z,2.53
2023-05-15T13:24:02.899Z,2.78
2023-05-15T13:26:04.523Z,2.50
2023-05-15T13:28:07.071Z,2.67
2023-05-15T13:30:09.132Z,2.67
2023-05-15T13:32:11.086Z,2.67
2023-05-15T13:34:12.690Z,2.70
2023-05-15T13:36:14.336Z,2.55
2023-05-15T13:38:15.886Z,2.90
2023-05-15T13:40:17.459Z,2.40
2023-05-15T13:42:19.514Z,2.65
2023-05-15T13:44:21.145Z,2.72
2023-05-15T13:46:23.101Z,3.10
2023-05-15T13:48:24.638Z,2.65
2023-05-15T13:50:26.586Z,3.83
2023-05-15T13:52:28.400Z,2.95
2023-05-15T13:54:30.372Z,3.30
2023-05-15T13:56:31.899Z,2.97
2023-05-15T13:58:33.460Z,3.42
2023-05-15T14:00:35.565Z,3.47
2023-05-15T14:02:37.184Z,3.92
2023-05-15T14:04:38.738Z,5.28
2023-05-15T14:06:40.856Z,3.90
2023-05-15T14:08:42.385Z,2.85
2023-05-15T14:10:44.284Z,3.28
2023-05-15T14:12:47.055Z,3.97
2023-05-15T14:14:48.752Z,3.45
2023-05-15T14:16:50.318Z,3.00
2023-05-15T14:18:52.024Z,3.65
2023-05-15T14:20:53.803Z,3.58
2023-05-15T14:22:56.168Z,3.63
2023-05-15T14:24:57.801Z,3.90
2023-05-15T14:26:59.351Z,4.10
2023-05-15T14:29:00.870Z,3.60
2023-05-15T14:31:02.506Z,3.20
2023-05-15T14:33:04.181Z,3.25
2023-05-15T14:35:05.995Z,4.97
2023-05-15T14:37:07.556Z,5.10
2023-05-15T14:39:09.154Z,3.05
2023-05-15T14:41:10.863Z,3.10
2023-05-15T14:43:12.375Z,3.50
2023-05-15T14:45:14.312Z,3.40
2023-05-15T14:47:16.924Z,3.13
2023-05-15T14:49:18.498Z,3.40
2023-05-15T14:51:20.188Z,3.35
2023-05-15T14:53:21.780Z,2.97
2023-05-15T14:55:23.365Z,3.10
2023-05-15T14:57:24.877Z,3.38
2023-05-15T14:59:28.095Z,3.88
2023-05-15T15:01:29.766Z,3.50
2023-05-15T15:03:33.288Z,3.83
2023-05-15T15:05:35.589Z,4.70
2023-05-15T15:08:03.684Z,3.22
2023-05-15T15:10:06.207Z,2.95
2023-05-15T15:12:08.218Z,3.10
2023-05-15T15:14:09.695Z,4.63
2023-05-15T15:16:11.217Z,3.45
2023-05-15T15:18:12.780Z,5.30
2023-05-15T15:20:16.504Z,2.38
2023-05-15T15:22:18.603Z,2.47
2023-05-15T15:24:20.201Z,2.40
2023-05-15T15:26:21.837Z,3.35
2023-05-15T15:28:23.374Z,2.53
2023-05-15T15:30:25.177Z,2.55
2023-05-15T15:32:27.159Z,2.00
2023-05-15T15:34:28.731Z,4.50
2023-05-15T15:36:31.395Z,3.15
2023-05-15T15:38:32.933Z,4.95
2023-05-15T15:40:35.304Z,3.05
2023-05-15T15:42:37.073Z,2.72
2023-05-15T15:44:38.591Z,2.90
2023-05-15T15:46:40.109Z,4.45
2023-05-15T15:48:41.757Z,2.55
2023-05-15T15:50:43.440Z,5.80
2023-05-15T15:52:44.964Z,2.42
2023-05-15T15:54:49.692Z,13.50
2023-05-15T15:56:54.356Z,9.80
2023-05-15T15:58:55.880Z,8.23
2023-05-15T16:00:57.944Z,23.77
2023-05-15T16:02:59.795Z,7.53
2023-05-15T16:05:01.537Z,8.45
2023-05-15T16:07:04.003Z,6.35
2023-05-15T16:09:05.766Z,4.18
2023-05-15T16:11:07.309Z,6.13
2023-05-15T16:13:10.348Z,12.38
2023-05-15T16:15:22.733Z,13.82
2023-05-15T16:17:25.499Z,10.52
2023-05-15T16:19:27.195Z,17.50
2023-05-15T16:21:28.772Z,16.42
2023-05-15T16:23:37.220Z,19.42
2023-05-15T16:25:38.702Z,13.15
2023-05-15T16:27:40.388Z,19.50
2023-05-15T16:29:42.166Z,12.77
2023-05-15T16:31:43.901Z,7.95
2023-05-15T16:33:46.008Z,5.93
2023-05-15T16:35:48.134Z,3.78
2023-05-15T16:37:49.694Z,6.43
2023-05-15T16:39:51.659Z,5.38
2023-05-15T16:41:53.499Z,3.17
2023-05-15T16:43:55.452Z,7.00
2023-05-15T16:45:57.068Z,7.75
2023-05-15T16:47:58.853Z,7.43
2023-05-15T16:50:00.611Z,14.90
2023-05-15T16:52:02.177Z,10.43
2023-05-15T16:54:03.845Z,8.90
2023-05-15T16:56:05.781Z,5.32
2023-05-15T16:58:07.325Z,3.80
2023-05-15T17:00:09.842Z,5.78
2023-05-15T17:02:11.398Z,3.28
2023-05-15T17:04:13.049Z,6.35
2023-05-15T17:06:14.801Z,11.70
2023-05-15T17:08:16.319Z,16.02
2023-05-15T17:10:17.987Z,6.82
2023-05-15T17:12:19.759Z,4.75
2023-05-15T17:14:22.484Z,3.80
2023-05-15T17:16:24.081Z,3.13
2023-05-15T17:18:25.664Z,4.68
2023-05-15T17:20:27.329Z,3.90
2023-05-15T17:22:29.119Z,4.28
2023-05-15T17:24:46.337Z,4.50
2023-05-15T17:26:52.072Z,7.78
2023-05-15T17:28:53.649Z,68.75
2023-05-15T17:30:55.146Z,15.68
2023-05-15T17:32:57.053Z,9.80
2023-05-15T17:34:58.650Z,11.18
2023-05-15T17:37:00.192Z,9.60
2023-05-15T17:39:01.778Z,9.93
2023-05-15T17:41:03.334Z,6.60
2023-05-15T17:43:05.082Z,7.13
2023-05-15T17:45:07.032Z,11.70
2023-05-15T17:47:10.332Z,11.80
2023-05-15T17:49:12.006Z,11.15
2023-05-15T17:51:13.507Z,8.07
2023-05-15T17:53:15.433Z,9.05
2023-05-15T17:55:17.091Z,8.02
2023-05-15T17:57:18.695Z,7.68
2023-05-15T17:59:20.347Z,4.07
2023-05-15T18:01:22.306Z,6.57
2023-05-15T18:03:23.959Z,8.45
2023-05-15T18:05:25.851Z,8.50
2023-05-15T18:07:27.742Z,9.32
2023-05-15T18:09:29.754Z,9.05
2023-05-15T18:11:31.367Z,7.78
2023-05-15T18:13:32.910Z,5.45
2023-05-15T18:15:35.328Z,5.82
2023-05-15T18:17:37.019Z,4.88
2023-05-15T18:19:39.719Z,10.15
2023-05-15T18:21:41.288Z,10.35
2023-05-15T18:23:42.921Z,10.32
2023-05-15T18:25:44.601Z,7.90
2023-05-15T18:27:46.173Z,6.80
2023-05-15T18:29:47.760Z,6.95
2023-05-15T18:31:49.285Z,5.72
2023-05-15T18:33:50.827Z,5.03
2023-05-15T18:35:53.288Z,7.05
2023-05-15T18:37:54.801Z,3.83
2023-05-15T18:39:58.768Z,2.47
2023-05-15T18:42:00.694Z,2.25
2023-05-15T18:44:02.243Z,1.83
2023-05-15T18:46:04.098Z,2.10
2023-05-15T18:48:06.178Z,2.45
2023-05-15T18:50:08.407Z,2.30
2023-05-15T18:52:10.574Z,2.75
2023-05-15T18:54:12.096Z,4.10
2023-05-15T18:56:13.601Z,7.50
2023-05-15T18:58:15.324Z,4.82
2023-05-15T19:00:26.637Z,5.45
2023-05-15T19:02:36.202Z,3.83
2023-05-15T19:04:37.828Z,3.83
2023-05-15T19:06:39.343Z,4.35
2023-05-15T19:08:41.164Z,5.13
2023-05-15T19:10:47.884Z,3.90
2023-05-15T19:12:49.450Z,6.65
2023-05-15T19:14:51.250Z,3.53
2023-05-15T19:16:52.834Z,3.15
2023-05-15T19:18:55.647Z,2.90
2023-05-15T19:20:57.316Z,2.70
2023-05-15T19:22:58.864Z,2.90
2023-05-15T19:25:00.496Z,3.38
2023-05-15T19:27:02.051Z,3.20
2023-05-15T19:29:03.651Z,2.78
2023-05-15T19:31:05.328Z,1.98
2023-05-15T19:33:06.877Z,3.03
2023-05-15T19:35:08.946Z,4.70
2023-05-15T19:37:11.251Z,2.80
2023-05-15T19:39:12.899Z,4.63
2023-05-15T19:41:14.798Z,4.38
2023-05-15T19:43:17.456Z,3.38
2023-05-15T19:45:19.052Z,2.95
2023-05-15T19:47:20.721Z,1.90
2023-05-15T19:49:22.387Z,2.25
2023-05-15T19:51:23.957Z,3.40
2023-05-15T19:53:27.058Z,2.67
2023-05-15T19:55:28.628Z,2.30
2023-05-15T19:57:30.314Z,2.38
2023-05-15T19:59:31.884Z,2.38
2023-05-15T20:01:33.502Z,2.60
2023-05-15T20:03:35.125Z,2.17
2023-05-15T20:05:41.206Z,3.08
2023-05-15T20:07:43.273Z,3.70
2023-05-15T20:09:44.859Z,3.13
2023-05-15T20:11:46.354Z,3.13
2023-05-15T20:13:47.845Z,3.30
2023-05-15T20:15:59.094Z,4.18
2023-05-15T20:18:01.231Z,3.53
2023-05-15T20:20:05.249Z,4.78
2023-05-15T20:22:06.860Z,3.40
2023-05-15T20:24:08.489Z,4.97
2023-05-15T20:26:10.035Z,3.58
2023-05-15T20:28:11.676Z,3.38
2023-05-15T20:30:13.246Z,3.47
2023-05-15T20:32:15.223Z,3.15
2023-05-15T20:34:17.355Z,2.92
2023-05-15T20:36:19.112Z,3.15
2023-05-15T20:38:23.131Z,3.58
2023-05-15T20:40:26.215Z,3.30
2023-05-15T20:42:28.637Z,3.38
2023-05-15T20:44:30.185Z,4.40
2023-05-15T20:46:31.953Z,4.72
2023-05-15T20:48:33.608Z,3.83
2023-05-15T20:50:35.159Z,3.70
2023-05-15T20:52:36.726Z,3.78
2023-05-15T20:54:38.326Z,3.58
2023-05-15T20:56:39.857Z,3.38
2023-05-15T20:58:41.719Z,3.50
2023-05-15T21:00:43.295Z,3.35
2023-05-15T21:02:46.526Z,3.15
2023-05-15T21:04:48.345Z,3.30
2023-05-15T21:06:51.333Z,3.88
2023-05-15T21:08:52.949Z,3.55
2023-05-15T21:10:55.531Z,3.92
2023-05-15T21:12:59.295Z,3.72
2023-05-15T21:15:01.970Z,4.32
2023-05-15T21:17:03.597Z,3.42
2023-05-15T21:19:05.416Z,3.78
2023-05-15T21:21:09.807Z,3.38
2023-05-15T21:23:11.854Z,4.00
2023-05-15T21:25:13.529Z,4.18
2023-05-15T21:27:15.025Z,4.25
2023-05-15T21:29:16.680Z,4.25
2023-05-15T21:31:18.281Z,4.78
2023-05-15T21:33:19.834Z,4.68
2023-05-15T21:35:21.409Z,5.07
2023-05-15T21:37:22.919Z,5.07
2023-05-15T21:39:24.535Z,4.90
2023-05-15T21:41:26.169Z,5.40
2023-05-15T21:43:27.679Z,4.90
2023-05-15T21:45:29.749Z,5.28
2023-05-15T21:47:31.510Z,5.45
2023-05-15T21:49:33.060Z,5.15
2023-05-15T21:51:34.555Z,5.28
2023-05-15T21:53:36.268Z,4.90
2023-05-15T21:55:37.772Z,5.43
2023-05-15T21:57:39.308Z,5.40
2023-05-15T21:59:40.834Z,5.75
2023-05-15T22:01:42.497Z,5.68
2023-05-15T22:03:44.175Z,5.88
2023-05-15T22:05:45.966Z,4.40
2023-05-15T22:07:47.460Z,5.63
2023-05-15T22:09:48.990Z,5.15
2023-05-15T22:11:50.818Z,5.50
2023-05-15T22:13:52.506Z,4.93
2023-05-15T22:15:54.190Z,4.85
2023-05-15T22:17:55.991Z,5.75
2023-05-15T22:20:07.549Z,5.57
2023-05-15T22:22:09.755Z,5.30
2023-05-15T22:24:11.584Z,4.88
2023-05-15T22:26:13.270Z,5.35
2023-05-15T22:28:16.230Z,5.68
2023-05-15T22:30:17.788Z,6.25
2023-05-15T22:32:19.294Z,6.38
2023-05-15T22:34:21.421Z,6.18
2023-05-15T22:36:22.978Z,6.32
2023-05-15T22:38:24.534Z,5.90
2023-05-15T22:40:26.448Z,6.20
2023-05-15T22:42:28.778Z,5.47
2023-05-15T22:44:30.328Z,5.80
2023-05-15T22:46:31.964Z,6.25
2023-05-15T22:48:34.173Z,6.90
2023-05-15T22:50:36.817Z,5.70
2023-05-15T22:52:38.699Z,6.07
2023-05-15T22:54:40.906Z,6.18
2023-05-15T22:56:42.428Z,6.47
2023-05-15T22:58:43.947Z,6.60
2023-05-15T23:00:46.109Z,6.32
2023-05-15T23:02:47.715Z,6.45
2023-05-15T23:04:49.269Z,6.70
2023-05-15T23:06:51.200Z,6.00
2023-05-15T23:08:52.953Z,6.15
2023-05-15T23:10:56.228Z,5.88
2023-05-15T23:12:57.791Z,6.65
2023-05-15T23:14:59.332Z,6.50
2023-05-15T23:17:00.872Z,6.53
2023-05-15T23:19:02.600Z,7.00
2023-05-15T23:21:04.812Z,6.53
2023-05-15T23:23:06.338Z,7.38
2023-05-15T23:25:08.206Z,7.70
2023-05-15T23:27:09.757Z,8.18
2023-05-15T23:29:11.280Z,9.13
2023-05-15T23:31:13.854Z,7.85
2023-05-15T23:33:15.415Z,8.07
2023-05-15T23:35:16.912Z,7.72
2023-05-15T23:37:18.906Z,7.30
2023-05-15T23:39:20.456Z,7.15
2023-05-15T23:41:26.381Z,8.05
2023-05-15T23:43:28.322Z,7.38
2023-05-15T23:45:29.969Z,7.70
2023-05-15T23:47:31.503Z,7.78
2023-05-15T23:49:33.629Z,8.25
2023-05-15T23:51:35.347Z,8.65
2023-05-15T23:53:36.885Z,8.23
2023-05-15T23:55:38.393Z,8.80
2023-05-15T23:57:40.612Z,8.13
2023-05-15T23:59:42.178Z,7.93
